Time;durP1;ratioP1;P1;durP2;ratioP2;P2;SDS_P1;SDS_P2;PMS_P1;PMS_P2;Temp;Humidity;BMP_temperature;BMP_pressure;BME280_temperature;BME280_humidity;BME280_pressure;Samples;Min_cycle;Max_cycle;Signal;HPM_P1;HPM_P2
2021/04/15 00:01:44;;;;;;;1.77;0.40;;;15.10;56.40;;;;;;5024834;28;20041;-76
2021/04/15 00:04:11;;;;;;;2.17;0.70;;;15.10;57.10;;;;;;5036139;28;20080;-75
2021/04/15 00:06:37;;;;;;;3.08;0.85;;;15.10;56.40;;;;;;5036598;28;20064;-75
2021/04/15 00:09:15;;;;;;;1.27;0.52;;;15.00;56.30;;;;;;5037060;28;20053;-75
2021/04/15 00:11:41;;;;;;;3.03;0.40;;;15.00;56.30;;;;;;5036790;28;20434;-76
2021/04/15 00:14:10;;;;;;;2.63;0.50;;;15.10;56.40;;;;;;5036757;28;20048;-75
2021/04/15 00:16:37;;;;;;;2.00;0.70;;;15.00;56.40;;;;;;5036567;28;20037;-75
2021/04/15 00:19:04;;;;;;;3.33;0.80;;;15.00;56.40;;;;;;5037123;28;20045;-75
2021/04/15 00:21:30;;;;;;;2.05;0.52;;;15.00;56.40;;;;;;5031861;28;20073;-75
2021/04/15 00:23:56;;;;;;;1.55;0.30;;;15.00;56.50;;;;;;5017671;28;20066;-75
2021/04/15 00:26:24;;;;;;;3.63;0.73;;;15.00;56.50;;;;;;5016943;28;20124;-75
2021/04/15 00:28:51;;;;;;;2.05;0.45;;;15.00;56.50;;;;;;5016966;28;20394;-75
2021/04/15 00:31:17;;;;;;;3.22;0.50;;;15.00;56.50;;;;;;5019314;28;20053;-75
2021/04/15 00:33:43;;;;;;;1.90;0.55;;;15.00;56.50;;;;;;5036743;28;20037;-75
2021/04/15 00:36:10;;;;;;;2.05;0.40;;;15.00;56.50;;;;;;5036688;28;20145;-75
2021/04/15 00:38:37;;;;;;;1.90;0.40;;;15.00;56.50;;;;;;5037167;28;20048;-75
2021/04/15 00:41:04;;;;;;;1.95;0.57;;;14.90;56.40;;;;;;5035162;28;20056;-76
2021/04/15 00:43:33;;;;;;;1.63;0.38;;;14.90;56.30;;;;;;5016501;28;20053;-75
2021/04/15 00:46:20;;;;;;;2.42;0.50;;;15.00;56.40;;;;;;5016338;28;20053;-75
2021/04/15 00:48:46;;;;;;;2.17;0.55;;;14.90;56.30;;;;;;5016526;28;20089;-75
2021/04/15 00:51:23;;;;;;;1.30;0.52;;;14.90;56.30;;;;;;5018692;28;20446;-76
2021/04/15 00:53:58;;;;;;;2.28;0.60;;;14.90;56.30;;;;;;5036792;28;20045;-75
2021/04/15 00:56:25;;;;;;;2.88;0.40;;;14.90;56.10;;;;;;5036225;28;20052;-75
2021/04/15 00:58:52;;;;;;;2.72;0.55;;;14.90;56.20;;;;;;5018588;28;20045;-76
2021/04/15 01:01:18;;;;;;;1.20;0.40;;;14.90;56.20;;;;;;5033959;28;20046;-76
2021/04/15 01:03:44;;;;;;;3.08;0.55;;;14.90;56.10;;;;;;5016997;28;20046;-75
2021/04/15 01:06:12;;;;;;;2.80;0.40;;;14.90;56.10;;;;;;5016514;28;20499;-75
2021/04/15 01:08:37;;;;;;;0.93;0.52;;;14.90;56.10;;;;;;5016322;28;20133;-75
2021/04/15 01:11:17;;;;;;;2.92;0.80;;;14.90;56.10;;;;;;5016111;28;20061;-75
2021/04/15 01:13:52;;;;;;;1.83;0.47;;;14.90;56.10;;;;;;5035781;28;20052;-75
2021/04/15 01:16:33;;;;;;;0.93;0.30;;;14.90;56.00;;;;;;5035174;28;20037;-75
2021/04/15 01:19:26;;;;;;;2.20;0.55;;;14.80;56.10;;;;;;5035935;28;20115;-75
2021/04/15 01:22:16;;;;;;;1.92;0.50;;;14.80;56.10;;;;;;5011599;28;20045;-75
2021/04/15 01:24:49;;;;;;;2.90;0.40;;;14.80;56.00;;;;;;5018171;28;20061;-75
2021/04/15 01:27:28;;;;;;;1.98;0.40;;;14.80;56.10;;;;;;5035075;28;20111;-75
2021/04/15 01:30:19;;;;;;;2.22;0.50;;;14.80;56.00;;;;;;5036036;28;20041;-75
2021/04/15 01:32:56;;;;;;;1.75;0.50;;;14.80;55.90;;;;;;5021580;28;20469;-75
2021/04/15 01:35:28;;;;;;;3.03;0.43;;;14.80;56.00;;;;;;5015602;28;20033;-75
2021/04/15 01:38:00;;;;;;;1.70;0.40;;;14.80;56.00;;;;;;5015502;28;20107;-76
2021/04/15 01:40:32;;;;;;;1.55;0.55;;;14.70;56.10;;;;;;5015567;28;20119;-75
2021/04/15 01:43:10;;;;;;;2.00;0.40;;;14.70;56.00;;;;;;5030274;28;20100;-75
2021/04/15 01:45:37;;;;;;;2.10;0.63;;;14.70;56.00;;;;;;5017673;28;20041;-75
2021/04/15 01:48:11;;;;;;;3.95;0.60;;;14.70;56.10;;;;;;5035083;28;20041;-75
2021/04/15 01:50:40;;;;;;;1.88;0.57;;;14.70;56.00;;;;;;5034906;28;20045;-76
2021/04/15 01:53:20;;;;;;;3.08;0.50;;;14.70;56.00;;;;;;5018902;28;20056;-76
2021/04/15 01:55:53;;;;;;;2.00;0.47;;;14.70;56.00;;;;;;5016174;28;20049;-75
2021/04/15 01:58:47;;;;;;;1.70;0.40;;;14.70;55.90;;;;;;5015510;28;20065;-75
2021/04/15 02:01:18;;;;;;;4.10;0.80;;;14.70;55.70;;;;;;5015145;28;20050;-75
2021/04/15 02:03:47;;;;;;;1.83;0.43;;;14.70;56.00;;;;;;5035012;28;20048;-75
2021/04/15 02:06:23;;;;;;;1.50;0.55;;;14.70;56.00;;;;;;5035056;28;20061;-75
2021/04/15 02:08:53;;;;;;;2.33;0.60;;;14.70;55.90;;;;;;5035051;28;20045;-75
2021/04/15 02:11:31;;;;;;;2.35;0.68;;;14.70;55.90;;;;;;5034198;28;20049;-75
2021/04/15 02:14:01;;;;;;;1.25;0.47;;;14.60;55.80;;;;;;5015299;28;20443;-75
2021/04/15 02:16:32;;;;;;;1.60;0.47;;;14.60;55.80;;;;;;5015402;28;20481;-75
2021/04/15 02:19:15;;;;;;;1.60;0.40;;;14.60;55.80;;;;;;5015456;28;20037;-75
2021/04/15 02:21:56;;;;;;;1.38;0.40;;;14.60;55.70;;;;;;5018477;28;20121;-75
2021/04/15 02:24:25;;;;;;;2.13;0.40;;;14.60;55.60;;;;;;5035412;28;20064;-75
2021/04/15 02:26:58;;;;;;;1.75;0.40;;;14.60;55.50;;;;;;5036771;28;20442;-75
2021/04/15 02:29:25;;;;;;;1.25;0.40;;;14.60;55.50;;;;;;5039138;28;20107;-75
2021/04/15 02:32:01;;;;;;;0.80;0.20;;;14.60;55.50;;;;;;5033825;28;20410;-75
2021/04/15 02:34:37;;;;;;;2.00;0.50;;;14.60;55.40;;;;;;5018817;28;20121;-75
2021/04/15 02:37:15;;;;;;;1.17;0.30;;;14.60;55.40;;;;;;5019097;28;20045;-75
2021/04/15 02:39:48;;;;;;;2.28;0.40;;;14.60;55.40;;;;;;5019099;28;20041;-75
2021/04/15 02:42:26;;;;;;;2.53;0.50;;;14.60;55.30;;;;;;5019055;28;20074;-75
2021/04/15 02:44:59;;;;;;;2.38;0.35;;;14.60;55.30;;;;;;5028764;28;20045;-75
2021/04/15 02:47:33;;;;;;;3.83;0.52;;;14.50;55.30;;;;;;5038638;28;20041;-76
2021/04/15 02:50:00;;;;;;;1.52;0.45;;;14.50;55.40;;;;;;5038765;28;20494;-76
2021/04/15 02:52:31;;;;;;;1.02;0.35;;;14.50;55.40;;;;;;5038632;28;20038;-75
2021/04/15 02:55:06;;;;;;;1.67;0.28;;;14.50;56.00;;;;;;5027461;28;20085;-76
2021/04/15 02:57:38;;;;;;;1.10;0.30;;;14.50;55.40;;;;;;5018551;28;20091;-76
2021/04/15 03:00:13;;;;;;;1.60;0.40;;;14.50;55.40;;;;;;5018493;28;20525;-75
2021/04/15 03:02:48;;;;;;;3.15;0.40;;;14.50;55.40;;;;;;5018544;28;20344;-75
2021/04/15 03:05:21;;;;;;;0.85;0.35;;;14.50;55.40;;;;;;5031180;28;20057;-76
2021/04/15 03:07:49;;;;;;;0.90;0.25;;;14.50;55.30;;;;;;5038440;28;20076;-75
2021/04/15 03:10:19;;;;;;;1.63;0.77;;;14.40;55.90;;;;;;5037970;28;20060;-75
2021/04/15 03:13:05;;;;;;;1.60;0.40;;;14.50;55.30;;;;;;5038105;28;20072;-76
2021/04/15 03:15:40;;;;;;;1.98;0.50;;;14.50;55.20;;;;;;5022601;28;20052;-75
2021/04/15 03:18:10;;;;;;;;;;;14.40;55.10;;;;;;5018536;28;20061;-75
2021/04/15 03:20:51;;;;;;;1.05;0.47;;;14.50;55.10;;;;;;5018390;28;19987;-75
2021/04/15 03:23:40;;;;;;;1.70;0.40;;;14.40;55.00;;;;;;5018189;28;20046;-75
2021/04/15 03:26:55;;;;;;;2.53;0.50;;;14.40;55.00;;;;;;5037016;28;20068;-75
2021/04/15 03:29:21;;;;;;;;;;;14.40;54.90;;;;;;5027629;28;20085;-75
2021/04/15 03:32:09;;;;;;;2.28;0.47;;;14.40;54.90;;;;;;5038485;28;19979;-75
2021/04/15 03:35:02;;;;;;;1.17;0.30;;;14.40;54.90;;;;;;5030736;28;20396;-75
2021/04/15 03:37:40;;;;;;;1.20;0.20;;;14.40;54.80;;;;;;5017896;28;20112;-75
2021/04/15 03:40:11;;;;;;;0.85;0.50;;;14.40;54.90;;;;;;5018333;28;20432;-75
2021/04/15 03:42:44;;;;;;;2.08;0.50;;;14.40;54.80;;;;;;5017709;28;20054;-75
2021/04/15 03:45:18;;;;;;;1.58;0.40;;;14.40;54.80;;;;;;5027975;28;20037;-75
2021/04/15 03:48:07;;;;;;;2.60;0.60;;;14.40;54.80;;;;;;5037105;28;20132;-75
2021/04/15 03:50:54;;;;;;;0.75;0.38;;;14.40;54.70;;;;;;5037507;28;20037;-75
2021/04/15 03:53:33;;;;;;;1.00;0.32;;;14.30;54.60;;;;;;5037119;28;20128;-75
2021/04/15 03:56:12;;;;;;;1.85;0.35;;;14.40;54.60;;;;;;5036256;28;20045;-75
2021/04/15 03:58:51;;;;;;;1.95;0.68;;;14.30;54.60;;;;;;5037057;28;20068;-75
2021/04/15 04:01:31;;;;;;;0.95;0.30;;;14.30;54.60;;;;;;5033298;28;20049;-76
2021/04/15 04:04:04;;;;;;;1.25;0.50;;;14.30;54.60;;;;;;5016997;28;20398;-75
2021/04/15 04:06:34;;;;;;;0.90;0.20;;;14.30;54.70;;;;;;5017145;28;20049;-75
2021/04/15 04:09:05;;;;;;;2.50;0.32;;;14.30;54.70;;;;;;5017156;28;20038;-75
2021/04/15 04:11:34;;;;;;;3.20;0.40;;;14.30;54.70;;;;;;5021191;28;20033;-75
2021/04/15 04:14:07;;;;;;;1.00;0.47;;;14.30;54.70;;;;;;5028000;28;20038;-75
2021/04/15 04:17:09;;;;;;;1.52;0.55;;;14.30;54.80;;;;;;5037067;28;20063;-75
2021/04/15 04:19:49;;;;;;;0.90;0.30;;;14.30;54.60;;;;;;4985058;28;20439;-75
2021/04/15 04:22:36;;;;;;;1.48;0.60;;;14.30;54.70;;;;;;5036701;28;20311;-75
2021/04/15 04:25:10;;;;;;;1.00;0.30;;;14.30;55.50;;;;;;5023598;28;20041;-72
2021/04/15 04:28:06;;;;;;;3.03;0.40;;;14.30;54.90;;;;;;5036346;28;20049;-82
2021/04/15 04:30:42;;;;;;;2.90;0.32;;;14.20;54.70;;;;;;5020776;28;20045;-80
2021/04/15 04:33:16;;;;;;;2.75;0.30;;;14.20;54.30;;;;;;5035678;28;20049;-80
2021/04/15 04:35:47;;;;;;;3.33;0.40;;;14.20;54.40;;;;;;5010399;28;20037;-80
2021/04/15 04:38:20;;;;;;;2.13;0.38;;;14.30;54.30;;;;;;5036640;28;20100;-76
2021/04/15 04:40:53;;;;;;;4.25;0.30;;;14.40;54.30;;;;;;5023604;28;20053;-73
2021/04/15 04:43:40;;;;;;;4.43;0.70;;;14.50;54.30;;;;;;5017784;28;20447;-77
2021/04/15 04:46:18;;;;;;;1.48;0.30;;;14.70;54.30;;;;;;5036285;28;20045;-76
2021/04/15 04:48:59;;;;;;;2.00;0.57;;;14.90;54.40;;;;;;5018502;28;20415;-78
2021/04/15 04:51:51;;;;;;;1.92;0.32;;;15.10;54.50;;;;;;5018563;28;20038;-76
2021/04/15 04:54:19;;;;;;;3.00;0.60;;;15.30;53.10;;;;;;5034531;28;20060;-73
2021/04/15 04:57:07;;;;;;;1.63;0.50;;;15.20;54.20;;;;;;5034475;28;20045;-78
2021/04/15 04:59:43;;;;;;;8.05;0.80;;;15.20;54.90;;;;;;5015172;28;20033;-82
2021/04/15 05:02:13;;;;;;;3.78;0.50;;;15.50;55.40;;;;;;5035457;28;20405;-80
2021/04/15 05:04:43;;;;;;;3.67;0.73;;;15.60;55.40;;;;;;5034958;28;20037;-81
2021/04/15 05:07:27;;;;;;;7.10;0.85;;;15.80;55.40;;;;;;4989988;28;20424;-78
2021/04/15 05:09:56;;;;;;;5.18;0.90;;;15.90;55.90;;;;;;5016901;28;20034;-80
2021/04/15 05:12:28;;;;;;;4.00;0.90;;;16.00;55.80;;;;;;5016276;28;20045;-78
2021/04/15 05:14:56;;;;;;;5.35;0.90;;;16.10;55.90;;;;;;5029608;28;20049;-79
2021/04/15 05:17:31;;;;;;;3.63;0.60;;;16.10;56.20;;;;;;5035926;28;20045;-77
2021/04/15 05:20:00;;;;;;;4.15;0.55;;;16.20;56.30;;;;;;5016245;28;20065;-79
2021/04/15 05:22:39;;;;;;;3.22;0.68;;;16.30;56.20;;;;;;5028139;28;20042;-77
2021/04/15 05:25:34;;;;;;;1.60;0.50;;;16.40;56.40;;;;;;5031077;28;20044;-77
2021/04/15 05:28:03;;;;;;;2.40;0.60;;;16.40;57.10;;;;;;5007224;28;20061;-78
2021/04/15 05:30:48;;;;;;;4.45;0.50;;;16.60;56.90;;;;;;5015807;28;20042;-78
2021/04/15 05:33:22;;;;;;;3.40;0.50;;;16.70;57.00;;;;;;5015737;28;20120;-77
2021/04/15 05:36:13;;;;;;;2.35;0.40;;;16.80;56.60;;;;;;5015363;28;20505;-77
2021/04/15 05:38:47;;;;;;;2.78;0.30;;;16.90;56.50;;;;;;5016031;28;20038;-77
2021/04/15 05:41:17;;;;;;;;;;;17.00;56.50;;;;;;5016324;28;20107;-78
2021/04/15 05:43:48;;;;;;;3.15;0.30;;;17.00;56.30;;;;;;5029508;28;19928;-78
2021/04/15 05:46:28;;;;;;;1.77;0.52;;;17.10;56.10;;;;;;5015328;28;20042;-79
2021/04/15 05:49:01;;;;;;;4.05;0.60;;;17.10;56.00;;;;;;4998535;28;20087;-77
2021/04/15 05:51:41;;;;;;;5.68;0.70;;;17.00;56.10;;;;;;5033936;28;20057;-78
2021/04/15 05:54:20;;;;;;;4.45;0.73;;;16.90;57.40;;;;;;5015611;28;20154;-77
2021/04/15 05:57:15;;;;;;;4.35;0.70;;;16.90;57.00;;;;;;5016205;28;20110;-77
2021/04/15 06:00:03;;;;;;;7.45;0.93;;;16.30;55.50;;;;;;5001052;28;20040;-76
2021/04/15 06:02:52;;;;;;;5.70;0.90;;;16.50;56.40;;;;;;5007933;28;20457;-76
2021/04/15 06:05:33;;;;;;;5.15;0.68;;;16.70;56.40;;;;;;5013250;28;20067;-77
2021/04/15 06:08:04;;;;;;;6.20;0.60;;;16.90;55.80;;;;;;4993005;28;20065;-77
2021/04/15 06:10:34;;;;;;;7.32;0.50;;;17.10;55.30;;;;;;5015556;28;20417;-82
2021/04/15 06:13:40;;;;;;;4.90;0.60;;;17.30;54.90;;;;;;5001526;28;20064;-77
2021/04/15 06:16:25;;;;;;;5.90;0.60;;;17.40;54.40;;;;;;5005005;28;20116;-77
2021/04/15 06:19:14;;;;;;;6.30;1.10;;;17.50;54.30;;;;;;4997375;28;20069;-77
2021/04/15 06:21:47;;;;;;;4.97;0.75;;;17.60;53.80;;;;;;4982356;28;20048;-78
2021/04/15 06:24:35;;;;;;;3.23;0.97;;;17.60;51.00;;;;;;4981712;28;20506;-77
2021/04/15 06:27:05;;;;;;;5.38;0.80;;;17.60;48.50;;;;;;5001558;28;20311;-77
2021/04/15 06:30:02;;;;;;;3.60;0.68;;;17.60;48.20;;;;;;5031532;28;20114;-77
2021/04/15 06:32:47;;;;;;;5.22;1.10;;;17.60;46.30;;;;;;4998229;28;20049;-76
2021/04/15 06:35:26;;;;;;;8.27;0.85;;;17.70;46.90;;;;;;5024637;28;20040;-81
2021/04/15 06:38:18;;;;;;;3.42;0.95;;;17.80;47.70;;;;;;5028609;28;20064;-77
2021/04/15 06:41:01;;;;;;;4.57;0.93;;;17.90;48.30;;;;;;5007554;28;20046;-80
2021/04/15 06:43:39;;;;;;;2.95;0.60;;;17.90;49.30;;;;;;5020797;28;20092;-79
2021/04/15 06:46:14;;;;;;;6.47;0.77;;;18.00;49.20;;;;;;5023388;28;20181;-80
2021/04/15 06:48:47;;;;;;;6.90;0.98;;;18.00;49.50;;;;;;5030540;28;20084;-78
2021/04/15 06:51:54;;;;;;;5.75;0.50;;;18.10;49.70;;;;;;5034542;28;20038;-80
2021/04/15 06:54:37;;;;;;;2.08;0.73;;;18.10;49.80;;;;;;4943004;28;20342;-79
2021/04/15 06:57:31;;;;;;;4.67;0.90;;;18.10;50.10;;;;;;5015369;28;20113;-78
2021/04/15 07:00:13;;;;;;;2.38;0.50;;;18.10;50.20;;;;;;5020763;28;20460;-81
2021/04/15 07:03:13;;;;;;;1.85;0.52;;;18.10;50.40;;;;;;5029483;28;20045;-78
2021/04/15 07:05:55;;;;;;;5.05;0.82;;;18.10;50.50;;;;;;5040467;28;20045;-80
2021/04/15 07:08:42;;;;;;;2.63;0.40;;;18.20;50.80;;;;;;5020790;28;20050;-79
2021/04/15 07:11:50;;;;;;;3.03;0.45;;;18.30;50.50;;;;;;5003799;28;20037;-78
2021/04/15 07:14:55;;;;;;;2.67;0.40;;;18.30;50.50;;;;;;5023485;28;20100;-82
2021/04/15 07:17:43;;;;;;;3.28;0.45;;;18.30;50.60;;;;;;4998133;28;20084;-76
2021/04/15 07:20:31;;;;;;;3.78;0.50;;;18.40;50.70;;;;;;5034375;28;20123;-78
2021/04/15 07:23:11;;;;;;;3.17;0.65;;;18.40;51.00;;;;;;5025591;28;20029;-76
2021/04/15 07:25:52;;;;;;;4.30;0.65;;;18.30;50.50;;;;;;5007717;28;20068;-79
2021/04/15 07:28:38;;;;;;;4.57;0.52;;;18.40;50.70;;;;;;5035891;28;20045;-79
2021/04/15 07:31:34;;;;;;;4.22;0.57;;;18.40;50.50;;;;;;5038071;28;20053;-78
2021/04/15 07:34:38;;;;;;;4.00;0.70;;;18.30;50.30;;;;;;5024121;28;20072;-77
2021/04/15 07:37:38;;;;;;;5.07;0.85;;;18.10;49.40;;;;;;5021113;28;20353;-79
2021/04/15 07:40:03;;;;;;;3.60;0.50;;;17.70;50.20;;;;;;5007323;28;20052;-77
2021/04/15 07:42:49;;;;;;;5.80;0.77;;;17.60;51.30;;;;;;5049896;28;20045;-79
2021/04/15 07:45:35;;;;;;;3.85;0.68;;;17.60;51.90;;;;;;5029765;28;20038;-77
2021/04/15 07:48:07;;;;;;;4.15;0.90;;;17.60;51.00;;;;;;5020176;28;20030;-77
2021/04/15 07:50:53;;;;;;;4.03;0.60;;;17.70;50.80;;;;;;5017484;28;20034;-76
2021/04/15 07:53:26;;;;;;;4.22;0.50;;;17.60;50.10;;;;;;5021523;28;20111;-75
2021/04/15 07:56:21;;;;;;;3.42;0.63;;;17.60;50.00;;;;;;5031486;28;20519;-75
2021/04/15 07:59:20;;;;;;;5.32;1.00;;;17.60;50.10;;;;;;5032882;28;20049;-78
2021/04/15 08:02:15;;;;;;;4.65;0.73;;;17.60;51.30;;;;;;5033321;28;20072;-77
2021/04/15 08:05:03;;;;;;;6.63;0.93;;;17.50;50.80;;;;;;5020139;28;20055;-77
2021/04/15 08:07:41;;;;;;;4.15;0.68;;;17.50;50.70;;;;;;5029744;28;20131;-78
2021/04/15 08:10:15;;;;;;;4.93;0.60;;;17.50;51.70;;;;;;5027432;28;20135;-79
2021/04/15 08:12:50;;;;;;;6.15;0.70;;;17.40;52.00;;;;;;5023735;28;20450;-78
2021/04/15 08:15:20;;;;;;;5.47;0.82;;;17.30;54.00;;;;;;5017258;28;20100;-76
2021/04/15 08:18:10;;;;;;;5.32;0.52;;;17.30;53.60;;;;;;5015783;28;20049;-77
2021/04/15 08:20:57;;;;;;;3.60;0.82;;;17.20;53.50;;;;;;5035174;28;20445;-77
2021/04/15 08:23:35;;;;;;;11.98;1.17;;;17.10;53.60;;;;;;5019549;28;20042;-78
2021/04/15 08:26:44;;;;;;;2.78;0.60;;;17.10;53.60;;;;;;5033540;28;20044;-75
2021/04/15 08:29:39;;;;;;;5.00;0.75;;;17.10;54.20;;;;;;5023336;28;20032;-78
2021/04/15 08:32:29;;;;;;;3.10;0.90;;;17.00;55.10;;;;;;5041144;28;20033;-76
2021/04/15 08:35:04;;;;;;;2.83;0.50;;;17.00;55.10;;;;;;5044728;28;20069;-79
2021/04/15 08:38:01;;;;;;;8.73;0.90;;;17.00;55.30;;;;;;5036513;28;20441;-77
2021/04/15 08:40:30;;;;;;;4.78;0.68;;;17.00;55.50;;;;;;5049081;28;20449;-74
2021/04/15 08:43:10;;;;;;;6.25;0.70;;;17.00;55.40;;;;;;5040147;28;20134;-79
2021/04/15 08:45:39;;;;;;;3.75;0.90;;;17.00;55.80;;;;;;5017914;28;20037;-77
2021/04/15 08:48:14;;;;;;;9.63;0.88;;;17.00;55.50;;;;;;5025888;28;20033;-79
2021/04/15 08:50:54;;;;;;;5.93;0.73;;;17.00;55.70;;;;;;5018577;28;20100;-74
2021/04/15 08:54:16;;;;;;;6.03;1.17;;;17.00;56.20;;;;;;5016385;28;20038;-76
2021/04/15 08:56:58;;;;;;;3.78;0.73;;;17.00;54.20;;;;;;4971215;28;20050;-77
2021/04/15 08:59:50;;;;;;;3.55;1.05;;;16.90;53.40;;;;;;5033700;28;20116;-77
2021/04/15 09:02:35;;;;;;;3.65;1.00;;;16.80;53.80;;;;;;5034538;28;20315;-75
2021/04/15 09:05:20;;;;;;;4.07;0.60;;;16.70;54.00;;;;;;5035830;28;20434;-75
2021/04/15 09:07:56;;;;;;;3.35;0.60;;;16.70;54.20;;;;;;5036013;28;20107;-76
2021/04/15 09:10:29;;;;;;;3.85;0.52;;;16.70;54.40;;;;;;5035369;28;20387;-77
2021/04/15 09:13:21;;;;;;;3.80;0.65;;;16.70;54.40;;;;;;5034340;28;20034;-76
2021/04/15 09:16:02;;;;;;;4.82;0.77;;;16.70;54.40;;;;;;5034412;28;20056;-77
2021/04/15 09:18:41;;;;;;;5.85;0.65;;;16.70;54.20;;;;;;5034455;28;20107;-78
2021/04/15 09:21:36;;;;;;;5.22;0.98;;;16.60;53.80;;;;;;5034210;28;20053;-76
2021/04/15 09:24:20;;;;;;;4.30;0.88;;;16.60;53.70;;;;;;5034475;28;20057;-75
2021/04/15 09:27:15;;;;;;;2.90;1.00;;;16.60;53.70;;;;;;5034317;28;20507;-76
2021/04/15 09:29:54;;;;;;;2.72;0.55;;;16.70;53.70;;;;;;5034351;28;20056;-76
2021/04/15 09:32:27;;;;;;;3.67;0.43;;;16.70;53.70;;;;;;5034256;28;20350;-78
2021/04/15 09:35:01;;;;;;;3.78;0.63;;;16.70;53.80;;;;;;5034267;28;20040;-76
2021/04/15 09:37:46;;;;;;;4.13;0.90;;;16.70;53.80;;;;;;5033967;28;20342;-77
2021/04/15 09:40:34;;;;;;;2.10;0.40;;;16.70;53.80;;;;;;5015559;28;20464;-77
2021/04/15 09:43:25;;;;;;;5.38;0.70;;;16.60;53.90;;;;;;4998304;28;20100;-77
2021/04/15 09:46:17;;;;;;;1.90;0.40;;;16.60;54.20;;;;;;5015613;28;20457;-77
2021/04/15 09:48:59;;;;;;;1.95;0.45;;;16.60;54.10;;;;;;5015719;28;20052;-79
2021/04/15 09:51:48;;;;;;;1.92;0.60;;;16.60;54.20;;;;;;5015566;28;20045;-77
2021/04/15 09:54:46;;;;;;;2.70;0.43;;;16.60;53.90;;;;;;5027741;28;20057;-79
2021/04/15 09:57:33;;;;;;;2.22;0.40;;;16.60;54.80;;;;;;5033198;28;20064;-77
2021/04/15 10:00:29;;;;;;;3.13;0.60;;;16.60;54.40;;;;;;5033989;28;20048;-77
2021/04/15 10:03:17;;;;;;;2.78;0.50;;;16.60;54.50;;;;;;5033672;28;20040;-76
2021/04/15 10:05:50;;;;;;;3.20;0.68;;;16.60;54.50;;;;;;5030054;28;20155;-76
2021/04/15 10:08:37;;;;;;;2.75;0.35;;;16.60;54.50;;;;;;5019998;28;20111;-77
2021/04/15 10:11:09;;;;;;;1.73;0.35;;;16.60;54.60;;;;;;5015202;28;20049;-76
2021/04/15 10:14:12;;;;;;;2.13;0.60;;;16.60;54.50;;;;;;5015259;28;20065;-78
2021/04/15 10:17:12;;;;;;;2.33;0.50;;;16.70;54.60;;;;;;5009281;28;20348;-76
2021/04/15 10:20:00;;;;;;;4.03;0.70;;;16.80;54.50;;;;;;5024628;28;20709;-76
2021/04/15 10:22:50;;;;;;;1.23;0.50;;;16.90;54.40;;;;;;5019962;28;20397;-77
2021/04/15 10:25:33;;;;;;;4.32;0.50;;;17.00;54.00;;;;;;5022030;28;20057;-78
2021/04/15 10:28:18;;;;;;;3.38;0.47;;;17.00;53.40;;;;;;5026697;28;20052;-75
2021/04/15 10:31:13;;;;;;;2.22;0.52;;;17.10;53.30;;;;;;5034852;28;20357;-76
2021/04/15 10:33:54;;;;;;;1.92;0.50;;;17.20;53.30;;;;;;4986046;28;20053;-76
2021/04/15 10:36:26;;;;;;;1.35;0.50;;;17.30;53.20;;;;;;5023365;28;20053;-77
2021/04/15 10:39:16;;;;;;;1.55;0.30;;;17.30;53.00;;;;;;5015758;28;20072;-76
2021/04/15 10:42:29;;;;;;;2.70;0.55;;;17.30;53.30;;;;;;5015063;28;20053;-75
2021/04/15 10:45:26;;;;;;;3.78;0.30;;;17.30;52.70;;;;;;5026674;28;20038;-76
2021/04/15 10:48:07;;;;;;;2.45;0.40;;;17.30;53.10;;;;;;5036554;28;20418;-76
2021/04/15 10:50:51;;;;;;;0.98;0.20;;;17.30;52.80;;;;;;5037922;28;20051;-77
2021/04/15 10:53:20;;;;;;;3.30;0.60;;;17.30;52.90;;;;;;5038308;28;20049;-77
2021/04/15 10:56:03;;;;;;;2.33;0.35;;;17.20;53.10;;;;;;5038382;28;20045;-78
2021/04/15 10:58:34;;;;;;;2.10;0.38;;;17.20;53.00;;;;;;5038347;28;20038;-78
2021/04/15 11:01:38;;;;;;;1.52;0.38;;;17.20;53.00;;;;;;5037996;28;20099;-77
2021/04/15 11:04:13;;;;;;;2.13;0.22;;;17.20;53.20;;;;;;5033488;28;20146;-78
2021/04/15 11:06:48;;;;;;;2.03;0.38;;;17.10;53.10;;;;;;5038172;28;20524;-78
2021/04/15 11:09:18;;;;;;;2.55;0.30;;;17.10;53.00;;;;;;5038227;28;20362;-76
2021/04/15 11:11:54;;;;;;;1.92;0.40;;;17.10;53.00;;;;;;5038062;28;20128;-76
2021/04/15 11:14:22;;;;;;;2.53;0.43;;;17.00;53.50;;;;;;5038627;28;20095;-77
2021/04/15 11:16:54;;;;;;;3.72;0.70;;;17.00;52.40;;;;;;5020771;28;20501;-77
2021/04/15 11:19:25;;;;;;;3.38;0.70;;;17.00;52.10;;;;;;5038336;28;20034;-77
2021/04/15 11:21:54;;;;;;;2.30;0.60;;;16.60;49.70;;;;;;5038730;28;20078;-79
2021/04/15 11:24:32;;;;;;;2.70;0.40;;;16.70;49.40;;;;;;5037511;28;20041;-78
2021/04/15 11:27:04;;;;;;;5.80;0.80;;;16.60;52.30;;;;;;5037979;28;20064;-77
2021/04/15 11:29:39;;;;;;;5.35;0.90;;;16.60;52.60;;;;;;5038029;28;20397;-78
2021/04/15 11:32:25;;;;;;;2.55;0.52;;;16.70;52.80;;;;;;5038005;28;20041;-78
2021/04/15 11:35:05;;;;;;;3.80;0.40;;;16.70;52.80;;;;;;5021261;28;20077;-78
2021/04/15 11:37:32;;;;;;;4.30;0.73;;;16.70;52.80;;;;;;5020065;28;20057;-77
2021/04/15 11:40:16;;;;;;;3.53;0.30;;;16.80;52.90;;;;;;5037868;28;20393;-78
2021/04/15 11:42:42;;;;;;;3.50;0.57;;;16.80;52.90;;;;;;5037542;28;20072;-77
2021/04/15 11:45:12;;;;;;;3.35;0.50;;;16.80;52.90;;;;;;5037536;28;20052;-79
2021/04/15 11:47:38;;;;;;;1.83;0.50;;;16.70;53.00;;;;;;5037624;28;20046;-77
2021/04/15 11:50:12;;;;;;;3.05;0.60;;;16.70;53.10;;;;;;5037549;28;20087;-78
2021/04/15 11:52:41;;;;;;;2.25;0.47;;;16.70;53.00;;;;;;5037540;28;20111;-77
2021/04/15 11:55:32;;;;;;;3.55;0.40;;;16.70;53.10;;;;;;5037581;28;20038;-78
2021/04/15 11:57:59;;;;;;;3.08;0.30;;;16.70;53.10;;;;;;5037164;28;20449;-77
2021/04/15 12:00:27;;;;;;;4.13;0.63;;;16.70;53.30;;;;;;5036599;28;20080;-77
2021/04/15 12:02:56;;;;;;;2.03;0.30;;;16.70;53.40;;;;;;5037099;28;20037;-78
2021/04/15 12:05:27;;;;;;;2.13;0.20;;;16.60;53.40;;;;;;5036840;28;20041;-77
2021/04/15 12:08:00;;;;;;;5.53;0.60;;;16.60;53.60;;;;;;5037661;28;20030;-78
2021/04/15 12:10:30;;;;;;;1.77;0.60;;;16.60;53.70;;;;;;5036980;28;20438;-80
2021/04/15 12:13:03;;;;;;;3.63;0.70;;;16.60;53.80;;;;;;5037274;28;20116;-76
2021/04/15 12:15:40;;;;;;;1.48;0.30;;;16.50;53.70;;;;;;5037256;28;20437;-78
2021/04/15 12:18:27;;;;;;;2.30;0.55;;;16.50;53.80;;;;;;5036948;28;20116;-79
2021/04/15 12:21:11;;;;;;;2.58;0.38;;;16.50;53.80;;;;;;5019792;28;20076;-78
2021/04/15 12:23:49;;;;;;;2.15;0.30;;;16.50;54.00;;;;;;5036841;28;20378;-76
2021/04/15 12:26:31;;;;;;;2.72;0.73;;;16.50;54.10;;;;;;5036909;28;20087;-78
2021/04/15 12:29:06;;;;;;;1.77;0.30;;;16.50;54.10;;;;;;5037291;28;20056;-77
2021/04/15 12:31:41;;;;;;;2.42;0.20;;;16.50;54.20;;;;;;5036911;28;20109;-77
2021/04/15 12:34:32;;;;;;;2.15;0.38;;;16.50;54.20;;;;;;5037409;28;20326;-78
2021/04/15 12:37:22;;;;;;;1.42;0.30;;;16.50;54.20;;;;;;5036621;28;20338;-77
2021/04/15 12:40:00;;;;;;;0.70;0.28;;;16.40;54.20;;;;;;5036529;28;20052;-79
2021/04/15 12:42:26;;;;;;;2.45;0.30;;;16.40;54.30;;;;;;5036631;28;20038;-78
2021/04/15 12:45:00;;;;;;;3.55;0.50;;;16.40;54.40;;;;;;5036719;28;20441;-78
2021/04/15 12:47:33;;;;;;;1.35;0.28;;;16.40;54.50;;;;;;5036888;28;20037;-76
2021/04/15 12:50:01;;;;;;;0.95;0.30;;;16.40;54.50;;;;;;5003139;28;20046;-79
2021/04/15 12:52:31;;;;;;;0.63;0.20;;;16.30;54.50;;;;;;5036439;28;20053;-78
2021/04/15 12:55:00;;;;;;;0.70;0.20;;;16.30;54.40;;;;;;5036309;28;20393;-76
2021/04/15 12:57:28;;;;;;;4.05;0.60;;;16.30;54.50;;;;;;5036992;28;20422;-76
2021/04/15 12:59:54;;;;;;;1.08;0.40;;;16.30;54.60;;;;;;5036459;28;20046;-76
2021/04/15 13:02:27;;;;;;;2.42;0.47;;;16.30;54.60;;;;;;5036293;28;20458;-77
2021/04/15 13:04:57;;;;;;;2.22;0.28;;;16.30;54.60;;;;;;5036071;28;20053;-78
2021/04/15 13:07:26;;;;;;;1.73;0.30;;;16.20;54.60;;;;;;5036348;28;20047;-78
2021/04/15 13:10:14;;;;;;;0.60;0.30;;;16.20;54.60;;;;;;5036753;28;20369;-79
2021/04/15 13:12:43;;;;;;;1.02;0.30;;;16.20;54.70;;;;;;5035654;28;20132;-77
2021/04/15 13:15:29;;;;;;;2.90;0.52;;;16.20;54.60;;;;;;5035654;28;20124;-79
2021/04/15 13:18:04;;;;;;;1.75;0.40;;;16.20;54.40;;;;;;5035838;28;20434;-79
2021/04/15 13:20:30;;;;;;;1.13;0.25;;;16.10;54.60;;;;;;5035926;28;20045;-78
2021/04/15 13:23:08;;;;;;;1.75;0.50;;;16.10;54.60;;;;;;5029152;28;20048;-78
2021/04/15 13:25:49;;;;;;;2.05;0.55;;;16.20;54.70;;;;;;5033562;28;20470;-76
2021/04/15 13:28:25;;;;;;;4.32;0.40;;;16.20;54.90;;;;;;4998408;28;20034;-79
2021/04/15 13:30:57;;;;;;;6.32;0.90;;;16.20;55.40;;;;;;5015931;28;20108;-77
2021/04/15 13:33:57;;;;;;;3.30;0.70;;;16.20;55.30;;;;;;5013903;28;20056;-74
2021/04/15 13:36:23;;;;;;;4.75;0.63;;;16.20;54.90;;;;;;5034564;28;20037;-83
2021/04/15 13:38:58;;;;;;;3.20;0.60;;;16.30;54.80;;;;;;5006679;28;20104;-79
2021/04/15 13:41:46;;;;;;;2.90;0.43;;;16.40;54.90;;;;;;5033528;28;20108;-82
2021/04/15 13:44:53;;;;;;;4.18;0.47;;;16.50;54.90;;;;;;5017766;28;20067;-83
2021/04/15 13:47:56;;;;;;;6.53;0.60;;;16.60;55.20;;;;;;4997935;28;20106;-79
2021/04/15 13:51:01;;;;;;;8.13;0.90;;;16.70;55.20;;;;;;5009407;28;20046;-78